createdAt,value
2022-07-29T00:01:21.131Z,100726.63
2022-07-29T00:03:27.286Z,100726.89
2022-07-29T00:05:32.885Z,100727.05
2022-07-29T00:07:38.603Z,100726.3
2022-07-29T00:09:53.530Z,100731.11
2022-07-29T00:11:59.162Z,100728.87
2022-07-29T00:14:04.845Z,100732.23
2022-07-29T00:16:10.417Z,100729.82
2022-07-29T00:18:16.358Z,100733.89
2022-07-29T00:20:22.354Z,100733.14
2022-07-29T00:22:27.816Z,100731.8
2022-07-29T00:24:33.090Z,100737.12
2022-07-29T00:26:38.729Z,100736.7
2022-07-29T00:28:44.484Z,100743.41
2022-07-29T00:30:50.112Z,100746.31
2022-07-29T00:32:56.214Z,100744.47
2022-07-29T00:35:02.189Z,100743.55
2022-07-29T00:37:09.362Z,100745.95
2022-07-29T00:39:15.011Z,100744.88
2022-07-29T00:41:20.913Z,100740.63
2022-07-29T00:43:26.628Z,100736.75
2022-07-29T00:45:32.316Z,100736.56
2022-07-29T00:47:38.539Z,100733.68
2022-07-29T00:49:44.018Z,100731.16
2022-07-29T00:51:49.602Z,100732.66
2022-07-29T00:53:55.696Z,100731.58
2022-07-29T00:56:01.668Z,100730.77
2022-07-29T00:58:07.555Z,100730.89
2022-07-29T01:00:13.244Z,100732.39
2022-07-29T01:02:19.281Z,100733.67
2022-07-29T01:04:25.380Z,100732.53
2022-07-29T01:06:31.074Z,100731.88
2022-07-29T01:08:36.697Z,100732.52
2022-07-29T01:10:42.721Z,100734.98
2022-07-29T01:12:48.507Z,100734.48
2022-07-29T01:14:53.937Z,100730.33
2022-07-29T01:17:00.039Z,100726.09
2022-07-29T01:19:06.043Z,100727.36
2022-07-29T01:21:11.388Z,100727.41
2022-07-29T01:23:17.487Z,100732.94
2022-07-29T01:25:22.827Z,100729.39
2022-07-29T01:27:31.158Z,100731.19
2022-07-29T01:29:40.615Z,100735.39
2022-07-29T01:32:01.417Z,100735.7
2022-07-29T01:34:07.313Z,100731.98
2022-07-29T01:36:13.059Z,100732.36
2022-07-29T01:38:19.869Z,100736.32
2022-07-29T01:40:25.703Z,100736.62
2022-07-29T01:42:31.375Z,100740.95
2022-07-29T01:44:36.772Z,100742.03
2022-07-29T01:46:42.591Z,100741.36
2022-07-29T01:48:49.455Z,100742.91
2022-07-29T01:50:55.200Z,100744.38
2022-07-29T01:53:00.719Z,100743.88
2022-07-29T01:55:06.366Z,100742.87
2022-07-29T01:57:12.088Z,100743.64
2022-07-29T01:59:17.542Z,100745.22
2022-07-29T02:01:24.473Z,100743.05
2022-07-29T02:03:30.298Z,100742.8
2022-07-29T02:05:35.915Z,100743.77
2022-07-29T02:07:41.526Z,100741.16
2022-07-29T02:09:46.868Z,100747.85
2022-07-29T02:11:52.823Z,100745.36
2022-07-29T02:13:58.620Z,100738.23
2022-07-29T02:16:04.809Z,100737.98
2022-07-29T02:18:10.953Z,100735.64
2022-07-29T02:20:16.395Z,100729.8
2022-07-29T02:22:21.681Z,100733.63
2022-07-29T02:24:27.884Z,100731.75
2022-07-29T02:26:33.440Z,100736.08
2022-07-29T02:28:38.958Z,100736.81
2022-07-29T02:30:44.839Z,100737.2
2022-07-29T02:32:51.127Z,100742.66
2022-07-29T02:34:56.480Z,100742.81
2022-07-29T02:37:01.696Z,100745.88
2022-07-29T02:39:11.899Z,100744.31
2022-07-29T02:41:17.692Z,100749.16
2022-07-29T02:43:23.055Z,100748.09
2022-07-29T02:45:28.635Z,100746.17
2022-07-29T02:47:43.197Z,100746.42
2022-07-29T02:49:48.701Z,100747.43
2022-07-29T02:51:54.175Z,100749.58
2022-07-29T02:53:59.630Z,100752.48
2022-07-29T02:56:05.410Z,100751.38
2022-07-29T02:58:11.297Z,100750.03
2022-07-29T03:00:16.759Z,100749.7
2022-07-29T03:02:22.492Z,100750.87
2022-07-29T03:04:28.036Z,100751.77
2022-07-29T03:06:39.982Z,100751.63
2022-07-29T03:08:45.506Z,100750.36
2022-07-29T03:10:51.252Z,100751.78
2022-07-29T03:12:56.861Z,100747.44
2022-07-29T03:15:03.846Z,100748.38
2022-07-29T03:17:09.472Z,100750.63
2022-07-29T03:19:14.653Z,100745.53
2022-07-29T03:21:20.438Z,100748.2
2022-07-29T03:23:36.589Z,100752.58
2022-07-29T03:25:44.009Z,100756.36
2022-07-29T03:27:49.431Z,100760.3
2022-07-29T03:29:55.302Z,100758.8
2022-07-29T03:32:04.345Z,100762.59
2022-07-29T03:34:16.110Z,100761.2
2022-07-29T03:36:26.572Z,100761.05
2022-07-29T03:38:32.235Z,100762.78
2022-07-29T03:40:41.085Z,100765.8
2022-07-29T03:42:46.505Z,100764.99
2022-07-29T03:44:52.571Z,100765.79
2022-07-29T03:46:58.231Z,100764.66
2022-07-29T03:49:03.946Z,100760.48
2022-07-29T03:51:10.216Z,100760.51
2022-07-29T03:53:15.909Z,100756.66
2022-07-29T03:55:21.426Z,100758.41
2022-07-29T03:57:27.051Z,100762.69
2022-07-29T03:59:33.125Z,100758.34
2022-07-29T04:01:39.058Z,100753.39
2022-07-29T04:03:44.910Z,100749.86
2022-07-29T04:05:50.801Z,100755.31
2022-07-29T04:07:57.620Z,100761.15
2022-07-29T04:10:03.223Z,100768.81
2022-07-29T04:12:09.544Z,100767.77
2022-07-29T04:14:15.819Z,100769.36
2022-07-29T04:16:23.125Z,100770.02
2022-07-29T04:18:29.002Z,100775.23
2022-07-29T04:20:34.576Z,100775.67
2022-07-29T04:22:40.291Z,100774.73
2022-07-29T04:24:45.903Z,100776.52
2022-07-29T04:26:51.617Z,100775.64
2022-07-29T04:28:57.197Z,100775.56
2022-07-29T04:31:03.193Z,100777.26
2022-07-29T04:33:09.847Z,100775.28
2022-07-29T04:35:15.347Z,100777.3
2022-07-29T04:37:21.156Z,100767.89
2022-07-29T04:39:31.075Z,100772.8
2022-07-29T04:41:37.249Z,100775.86
2022-07-29T04:43:44.112Z,100778.3
2022-07-29T04:45:50.686Z,100777.72
2022-07-29T04:47:56.554Z,100778.78
2022-07-29T04:50:01.902Z,100778.28
2022-07-29T04:52:08.001Z,100777.16
2022-07-29T04:54:13.787Z,100785.33
2022-07-29T04:56:21.068Z,100782.9
2022-07-29T04:58:26.877Z,100787.19
2022-07-29T05:00:35.086Z,100786.34
2022-07-29T05:02:41.090Z,100795.76
2022-07-29T05:04:46.745Z,100794.33
2022-07-29T05:06:52.436Z,100791
2022-07-29T05:08:58.148Z,100792.44
2022-07-29T05:11:17.002Z,100791.98
2022-07-29T05:13:47.109Z,100795.17
2022-07-29T05:15:52.967Z,100792.55
2022-07-29T05:17:59.629Z,100793.8
2022-07-29T05:20:06.082Z,100800.97
2022-07-29T05:22:11.973Z,100793.95
2022-07-29T05:24:19.731Z,100794.88
2022-07-29T05:26:26.388Z,100797.7
2022-07-29T05:28:32.596Z,100796.2
2022-07-29T05:30:39.370Z,100787.62
2022-07-29T05:32:49.305Z,100788.44
2022-07-29T05:34:55.533Z,100785.09
2022-07-29T05:37:01.455Z,100776.91
2022-07-29T05:39:07.122Z,100772.41
2022-07-29T05:41:12.776Z,100775.16
2022-07-29T05:43:19.590Z,100775.32
2022-07-29T05:45:25.997Z,100777.85
2022-07-29T05:47:32.164Z,100770.88
2022-07-29T05:49:39.014Z,100775.67
2022-07-29T05:51:49.825Z,100777.71
2022-07-29T05:53:57.852Z,100774.77
2022-07-29T05:56:03.943Z,100769.16
2022-07-29T05:58:11.000Z,100763.64
2022-07-29T06:00:17.716Z,100769.23
2022-07-29T06:02:23.999Z,100758.51
2022-07-29T06:04:29.939Z,100758.55
2022-07-29T06:06:35.690Z,100754.95
2022-07-29T06:08:41.658Z,100750.23
2022-07-29T06:10:47.607Z,100753.11
2022-07-29T06:12:53.562Z,100750.43
2022-07-29T06:15:00.028Z,100756.8
2022-07-29T06:17:10.172Z,100754.33
2022-07-29T06:19:16.156Z,100750.7
2022-07-29T06:21:22.661Z,100749.88
2022-07-29T06:23:29.861Z,100750.48
2022-07-29T06:25:36.795Z,100750.8
2022-07-29T06:27:43.953Z,100753.83
2022-07-29T06:29:51.323Z,100749.41
2022-07-29T06:31:59.147Z,100738.68
2022-07-29T06:34:06.595Z,100739.58
2022-07-29T06:36:15.778Z,100743.69
2022-07-29T06:38:36.301Z,100741.39
2022-07-29T06:40:55.905Z,100740.41
2022-07-29T06:43:03.105Z,100743.58
2022-07-29T06:45:12.646Z,100748.66
2022-07-29T06:47:19.257Z,100749.99
2022-07-29T06:49:25.545Z,100747.56
2022-07-29T06:51:31.991Z,100750.45
2022-07-29T06:53:38.555Z,100751.58
2022-07-29T06:56:08.507Z,100752.02
2022-07-29T06:58:15.298Z,100757.1
2022-07-29T07:00:21.364Z,100757.21
2022-07-29T07:02:26.881Z,100753.55
2022-07-29T07:04:34.301Z,100751.2
2022-07-29T07:06:39.816Z,100750.55
2022-07-29T07:08:46.915Z,100750.03
2022-07-29T07:10:53.287Z,100746.48
2022-07-29T07:12:59.952Z,100746.31
2022-07-29T07:15:07.053Z,100744.8
2022-07-29T07:17:14.178Z,100742.88
2022-07-29T07:19:21.425Z,100744.2
2022-07-29T07:21:31.708Z,100741.27
2022-07-29T07:23:40.512Z,100745.63
2022-07-29T07:25:47.275Z,100741.02
2022-07-29T07:27:53.788Z,100741.78
2022-07-29T07:29:59.838Z,100737.42
2022-07-29T07:32:06.482Z,100744.59
2022-07-29T07:34:16.488Z,100743.81
2022-07-29T07:36:35.138Z,100743.3
2022-07-29T07:38:44.827Z,100744.77
2022-07-29T07:40:51.416Z,100751.15
2022-07-29T07:42:58.368Z,100747.92
2022-07-29T07:45:17.955Z,100749.08
2022-07-29T07:47:25.379Z,100745.27
2022-07-29T07:49:38.271Z,100743.38
2022-07-29T07:51:52.473Z,100742.06
2022-07-29T07:53:59.226Z,100746.45
2022-07-29T07:56:13.710Z,100746.8
2022-07-29T07:58:20.634Z,100749.33
2022-07-29T08:00:27.155Z,100755.38
2022-07-29T08:02:34.052Z,100754.16
2022-07-29T08:04:40.985Z,100754.7
2022-07-29T08:06:47.497Z,100756.97
2022-07-29T08:09:13.571Z,100756.48
2022-07-29T08:11:39.039Z,100758.47
2022-07-29T08:13:58.207Z,100756.11
2022-07-29T08:16:05.016Z,100758.28
2022-07-29T08:18:12.765Z,100753.03
2022-07-29T08:20:20.590Z,100751.14
2022-07-29T08:22:27.526Z,100744.05
2022-07-29T08:24:34.183Z,100742.48
2022-07-29T08:26:41.955Z,100736.32
2022-07-29T08:28:49.321Z,100739.11
2022-07-29T08:30:56.803Z,100733.66
2022-07-29T08:33:03.608Z,100734.09
2022-07-29T08:35:10.367Z,100738.09
2022-07-29T08:37:17.073Z,100734.97
2022-07-29T08:39:23.831Z,100733.56
2022-07-29T08:41:31.415Z,100736.67
2022-07-29T08:43:39.366Z,100739.82
2022-07-29T08:45:49.394Z,100741.38
2022-07-29T08:47:56.361Z,100740.55
2022-07-29T08:50:02.872Z,100739.18
2022-07-29T08:52:09.495Z,100743.61
2022-07-29T08:54:16.026Z,100737.91
2022-07-29T08:56:22.678Z,100741.53
2022-07-29T08:58:29.567Z,100733.18
2022-07-29T09:00:42.338Z,100738.13
2022-07-29T09:02:54.279Z,100739.27
2022-07-29T09:05:01.126Z,100741.14
2022-07-29T09:07:07.839Z,100730.39
2022-07-29T09:09:15.424Z,100729.31
2022-07-29T09:11:22.439Z,100731.34
2022-07-29T09:13:29.340Z,100725.97
2022-07-29T09:15:36.092Z,100725.58
2022-07-29T09:17:43.004Z,100723.53
2022-07-29T09:19:50.126Z,100728.33
2022-07-29T09:21:56.754Z,100721.27
2022-07-29T09:24:04.899Z,100719.84
2022-07-29T09:26:11.927Z,100719.07
2022-07-29T09:28:18.875Z,100722.88
2022-07-29T09:30:33.616Z,100722.41
2022-07-29T09:32:44.948Z,100723.75
2022-07-29T09:34:58.627Z,100720.23
2022-07-29T09:37:05.614Z,100717.83
2022-07-29T09:39:13.734Z,100718.16
2022-07-29T09:41:27.045Z,100718.84
2022-07-29T09:43:33.567Z,100718.21
2022-07-29T09:45:40.179Z,100712.26
2022-07-29T09:47:47.191Z,100716.33
2022-07-29T09:49:54.419Z,100717.73
2022-07-29T09:52:01.400Z,100721.88
2022-07-29T09:54:11.708Z,100718.47
2022-07-29T09:56:18.434Z,100714.52
2022-07-29T09:58:25.199Z,100711.87
2022-07-29T10:00:32.855Z,100709.49
2022-07-29T10:02:39.685Z,100707.2
2022-07-29T10:04:46.468Z,100703.94
2022-07-29T10:06:53.266Z,100705.38
2022-07-29T10:09:10.602Z,100698.05
2022-07-29T10:11:18.522Z,100695.98
2022-07-29T10:13:25.291Z,100686.78
2022-07-29T10:15:31.835Z,100688.19
2022-07-29T10:17:43.590Z,100681.81
2022-07-29T10:19:50.174Z,100682.27
2022-07-29T10:22:00.364Z,100674.38
2022-07-29T10:24:14.774Z,100676.56
2022-07-29T10:26:22.119Z,100669.97
2022-07-29T10:28:28.504Z,100672.53
2022-07-29T10:30:34.961Z,100673.05
2022-07-29T10:32:42.003Z,100675.22
2022-07-29T10:34:49.250Z,100675.59
2022-07-29T10:36:56.782Z,100679.07
2022-07-29T10:39:05.147Z,100681.16
2022-07-29T10:41:21.002Z,100681.69
2022-07-29T10:43:31.792Z,100674.16
2022-07-29T10:45:38.318Z,100663.1
2022-07-29T10:47:49.648Z,100666.08
2022-07-29T10:49:58.122Z,100664.37
2022-07-29T10:52:07.428Z,100664.19
2022-07-29T10:54:15.407Z,100672.34
2022-07-29T10:56:26.790Z,100669.53
2022-07-29T10:58:33.617Z,100670.06
2022-07-29T11:00:57.924Z,100664.83
2022-07-29T11:03:12.692Z,100659.55
2022-07-29T11:05:40.003Z,100657.19
2022-07-29T11:07:57.400Z,100655.39
2022-07-29T11:10:10.468Z,100654.66
2022-07-29T11:12:19.999Z,100659.19
2022-07-29T11:14:30.557Z,100656.31
2022-07-29T11:16:39.574Z,100656.15
2022-07-29T11:18:46.767Z,100650.13
2022-07-29T11:21:00.702Z,100653.88
2022-07-29T11:23:07.796Z,100654.95
2022-07-29T11:25:18.378Z,100645.09
2022-07-29T11:27:56.763Z,100647.13
2022-07-29T11:30:05.391Z,100648.41
2022-07-29T11:32:18.300Z,100644.11
2022-07-29T11:34:34.790Z,100651.07
2022-07-29T11:36:42.498Z,100645.61
2022-07-29T11:38:51.806Z,100638.69
2022-07-29T11:41:00.335Z,100638.55
2022-07-29T11:43:10.407Z,100638.91
2022-07-29T11:45:46.728Z,100637.17
2022-07-29T11:47:53.787Z,100635.28
2022-07-29T11:50:11.897Z,100638.88
2022-07-29T11:52:25.207Z,100634.91
2022-07-29T11:54:31.455Z,100631.69
2022-07-29T11:57:01.439Z,100632.17
2022-07-29T11:59:10.117Z,100631.49
2022-07-29T12:01:23.078Z,100630.66
2022-07-29T12:03:37.937Z,100634.19
2022-07-29T12:05:51.778Z,100629.72
2022-07-29T12:08:01.329Z,100630.73
2022-07-29T12:10:19.618Z,100624.95
2022-07-29T12:12:39.578Z,100632.07
2022-07-29T12:14:46.322Z,100625.42
2022-07-29T12:16:52.947Z,100626.07
2022-07-29T12:19:02.207Z,100624.87
2022-07-29T12:21:12.510Z,100623.64
2022-07-29T12:23:20.820Z,100627.67
2022-07-29T12:25:34.901Z,100620.98
2022-07-29T12:27:44.936Z,100624.25
2022-07-29T12:29:51.825Z,100619.89
2022-07-29T12:32:04.329Z,100616.28
2022-07-29T12:34:24.237Z,100614.25
2022-07-29T12:36:30.776Z,100610.98
2022-07-29T12:38:37.667Z,100609.39
2022-07-29T12:40:45.174Z,100605.17
2022-07-29T12:42:51.895Z,100609.97
2022-07-29T12:44:59.095Z,100609.84
2022-07-29T12:47:05.827Z,100612.6
2022-07-29T12:49:13.740Z,100599.82
2022-07-29T12:51:21.145Z,100602.56
2022-07-29T12:53:27.171Z,100601.24
2022-07-29T12:55:33.514Z,100601.17
2022-07-29T12:57:40.490Z,100595.05
2022-07-29T12:59:47.326Z,100596.45
2022-07-29T13:01:54.340Z,100598.55
2022-07-29T13:04:01.487Z,100593.44
2022-07-29T13:06:07.411Z,100594.58
2022-07-29T13:08:31.179Z,100592.41
2022-07-29T13:10:37.735Z,100588.06
2022-07-29T13:12:45.444Z,100592.61
2022-07-29T13:14:53.581Z,100584.33
2022-07-29T13:17:00.448Z,100585.16
2022-07-29T13:19:07.246Z,100586.5
2022-07-29T13:21:13.800Z,100587.73
2022-07-29T13:23:23.119Z,100589.06
2022-07-29T13:25:30.308Z,100584.47
2022-07-29T13:27:37.710Z,100583.98
2022-07-29T13:29:44.800Z,100586.24
2022-07-29T13:31:52.433Z,100583.89
2022-07-29T13:33:59.705Z,100580.73
2022-07-29T13:36:06.495Z,100578.62
2022-07-29T13:38:13.351Z,100584.8
2022-07-29T13:40:19.856Z,100576.67
2022-07-29T13:42:26.601Z,100575.16
2022-07-29T13:44:32.954Z,100572.39
2022-07-29T13:46:41.654Z,100566.88
2022-07-29T13:48:48.966Z,100567.48
2022-07-29T13:50:56.174Z,100561.45
2022-07-29T13:53:03.051Z,100559.62
2022-07-29T13:55:10.411Z,100560.58
2022-07-29T13:57:16.760Z,100556.83
2022-07-29T13:59:23.479Z,100557.75
2022-07-29T14:01:30.368Z,100555.81
2022-07-29T14:03:37.317Z,100551.92
2022-07-29T14:05:49.714Z,100549.5
2022-07-29T14:07:56.070Z,100553.05
2022-07-29T14:10:02.575Z,100555.71
2022-07-29T14:12:10.005Z,100551.53
2022-07-29T14:14:16.473Z,100550.41
2022-07-29T14:16:24.512Z,100555.09
2022-07-29T14:18:32.007Z,100551.63
2022-07-29T14:20:38.828Z,100551.77
2022-07-29T14:22:47.407Z,100547.72
2022-07-29T14:24:54.135Z,100542.39
2022-07-29T14:27:09.471Z,100542.13
2022-07-29T14:29:16.791Z,100536.78
2022-07-29T14:31:23.794Z,100529.7
2022-07-29T14:33:31.442Z,100525.92
2022-07-29T14:35:38.290Z,100523.14
2022-07-29T14:37:45.280Z,100520.7
2022-07-29T14:39:51.988Z,100519.97
2022-07-29T14:42:00.561Z,100516.88
2022-07-29T14:44:07.671Z,100517.89
2022-07-29T14:46:14.486Z,100523.13
2022-07-29T14:48:23.108Z,100519.65
2022-07-29T14:50:33.045Z,100519.23
2022-07-29T14:53:00.512Z,100513.55
2022-07-29T14:55:21.117Z,100518.38
2022-07-29T14:57:27.863Z,100514.58
2022-07-29T14:59:34.823Z,100508.16
2022-07-29T15:01:42.023Z,100508.07
2022-07-29T15:03:48.980Z,100502.8
2022-07-29T15:05:55.538Z,100497.8
2022-07-29T15:08:01.992Z,100502.61
2022-07-29T15:10:09.882Z,100495.69
2022-07-29T15:12:20.197Z,100497.86
2022-07-29T15:14:27.119Z,100497.55
2022-07-29T15:16:34.419Z,100491.73
2022-07-29T15:18:42.537Z,100491.8
2022-07-29T15:20:49.395Z,100485.77
2022-07-29T15:22:57.904Z,100484.34
2022-07-29T15:25:04.864Z,100483.6
2022-07-29T15:27:11.807Z,100483.55
2022-07-29T15:29:18.307Z,100486.34
2022-07-29T15:31:26.156Z,100484.38
2022-07-29T15:33:33.334Z,100484.19
2022-07-29T15:36:01.715Z,100475.65
2022-07-29T15:38:08.994Z,100479.48
2022-07-29T15:40:15.485Z,100475.66
2022-07-29T15:42:22.653Z,100470.83
2022-07-29T15:44:29.713Z,100468.39
2022-07-29T15:46:36.560Z,100466.48
2022-07-29T15:48:43.854Z,100464.66
2022-07-29T15:50:51.044Z,100463.33
2022-07-29T15:52:57.988Z,100460
2022-07-29T15:55:04.930Z,100465.2
2022-07-29T15:57:12.934Z,100466.39
2022-07-29T15:59:24.050Z,100464.44
2022-07-29T16:01:31.125Z,100463.52
2022-07-29T16:03:46.177Z,100459.16
2022-07-29T16:05:53.667Z,100458.75
2022-07-29T16:08:00.843Z,100461.22
2022-07-29T16:10:07.377Z,100455.97
2022-07-29T16:12:17.271Z,100456.41
2022-07-29T16:14:28.139Z,100451.47
2022-07-29T16:16:35.216Z,100453.23
2022-07-29T16:18:42.091Z,100452.41
2022-07-29T16:20:48.898Z,100453.45
2022-07-29T16:22:55.702Z,100448.29
2022-07-29T16:25:03.143Z,100449.61
2022-07-29T16:27:10.575Z,100444.85
2022-07-29T16:29:17.355Z,100448.13
2022-07-29T16:31:24.353Z,100447.96
2022-07-29T16:33:57.815Z,100453.55
2022-07-29T16:36:04.604Z,100456.31
2022-07-29T16:38:14.000Z,100464.25
2022-07-29T16:40:21.358Z,100469.82
2022-07-29T16:42:47.921Z,100466.06
2022-07-29T16:44:55.183Z,100469.03
2022-07-29T16:47:03.465Z,100473.13
2022-07-29T16:49:10.965Z,100476.23
2022-07-29T16:51:24.380Z,100476.38
2022-07-29T16:53:31.866Z,100479.52
2022-07-29T16:55:38.489Z,100480.45
2022-07-29T16:57:49.355Z,100485.97
2022-07-29T16:59:56.355Z,100484.55
2022-07-29T17:02:03.866Z,100480.16
2022-07-29T17:04:10.828Z,100479
2022-07-29T17:06:18.662Z,100482.08
2022-07-29T17:08:25.612Z,100477.7
2022-07-29T17:10:32.679Z,100471.92
2022-07-29T17:12:39.359Z,100479.04
2022-07-29T17:14:46.177Z,100478.27
2022-07-29T17:17:02.976Z,100481.98
2022-07-29T17:19:23.268Z,100481.67
2022-07-29T17:21:30.035Z,100477.67
2022-07-29T17:23:36.806Z,100478.14
2022-07-29T17:25:43.734Z,100483.17
2022-07-29T17:27:51.055Z,100480.67
2022-07-29T17:30:05.110Z,100483.07
2022-07-29T17:32:12.826Z,100478.64
2022-07-29T17:34:20.741Z,100480.05
2022-07-29T17:36:28.354Z,100472.68
2022-07-29T17:38:35.541Z,100471.58
2022-07-29T17:40:42.831Z,100476.53
2022-07-29T17:42:49.807Z,100476.56
2022-07-29T17:44:59.963Z,100473.76
2022-07-29T17:47:09.989Z,100478.84
2022-07-29T17:49:23.153Z,100480.61
2022-07-29T17:51:30.332Z,100478.52
2022-07-29T17:53:37.083Z,100480.06
2022-07-29T17:55:44.481Z,100482.2
2022-07-29T17:57:51.462Z,100481.36
2022-07-29T18:00:04.484Z,100486.67
2022-07-29T18:02:17.555Z,100485.66
2022-07-29T18:04:26.996Z,100481.2
2022-07-29T18:06:34.086Z,100483.51
2022-07-29T18:08:41.958Z,100485.64
2022-07-29T18:10:48.841Z,100483.82
2022-07-29T18:12:56.125Z,100479.8
2022-07-29T18:15:02.406Z,100478.5
2022-07-29T18:17:09.567Z,100478.34
2022-07-29T18:19:18.330Z,100479.11
2022-07-29T18:21:54.829Z,100482.33
2022-07-29T18:24:11.030Z,100482.38
2022-07-29T18:26:17.371Z,100484.02
2022-07-29T18:28:27.846Z,100482.63
2022-07-29T18:30:34.946Z,100481.38
2022-07-29T18:32:50.533Z,100484.47
2022-07-29T18:35:38.039Z,100478.75
2022-07-29T18:38:05.430Z,100471.75
2022-07-29T18:40:12.432Z,100474.73
2022-07-29T18:42:19.114Z,100474
2022-07-29T18:44:25.688Z,100474.06
2022-07-29T18:46:34.880Z,100480.36
2022-07-29T18:48:52.075Z,100486.7
2022-07-29T18:51:01.019Z,100489.23
2022-07-29T18:53:14.921Z,100490.86
2022-07-29T18:55:22.250Z,100486.8
2022-07-29T18:57:58.349Z,100490.16
2022-07-29T19:00:05.639Z,100492.52
2022-07-29T19:02:14.493Z,100490.75
2022-07-29T19:04:23.324Z,100492.38
2022-07-29T19:06:31.730Z,100491.06
2022-07-29T19:08:39.360Z,100492.05
2022-07-29T19:10:47.565Z,100498.11
2022-07-29T19:12:54.668Z,100501.34
2022-07-29T19:15:01.353Z,100502.53
2022-07-29T19:17:08.341Z,100503.73
2022-07-29T19:19:15.475Z,100500.25
2022-07-29T19:21:22.248Z,100500.25
2022-07-29T19:23:29.290Z,100500.06
2022-07-29T19:26:22.090Z,100501.19
2022-07-29T19:28:31.490Z,100496.84
2022-07-29T19:30:39.033Z,100490.31
2022-07-29T19:32:45.909Z,100497.45
2022-07-29T19:34:54.491Z,100495.27
2022-07-29T19:37:02.589Z,100497.77
2022-07-29T19:39:09.654Z,100496
2022-07-29T19:41:15.711Z,100501.73
2022-07-29T19:43:53.811Z,100505.09
2022-07-29T19:46:01.326Z,100503.32
2022-07-29T19:48:09.996Z,100502.98
2022-07-29T19:50:18.649Z,100504.88
2022-07-29T19:52:27.062Z,100514.52
2022-07-29T19:54:35.603Z,100515.8
2022-07-29T19:56:43.870Z,100516.84
2022-07-29T19:58:53.644Z,100514.15
2022-07-29T20:01:01.005Z,100514.11
2022-07-29T20:03:15.799Z,100516.03
2022-07-29T20:05:30.036Z,100516.16
2022-07-29T20:07:37.350Z,100518.36
2022-07-29T20:09:46.161Z,100518.47
2022-07-29T20:11:53.725Z,100514.04
2022-07-29T20:14:01.391Z,100511.61
2022-07-29T20:16:09.178Z,100512.03
2022-07-29T20:18:16.074Z,100517.06
2022-07-29T20:20:24.634Z,100514.05
2022-07-29T20:22:32.443Z,100509.47
2022-07-29T20:24:39.916Z,100510.38
2022-07-29T20:26:51.585Z,100515.34
2022-07-29T20:28:58.298Z,100512.04
2022-07-29T20:31:05.850Z,100511
2022-07-29T20:33:13.013Z,100509.73
2022-07-29T20:35:22.896Z,100508.7
2022-07-29T20:37:29.345Z,100503.27
2022-07-29T20:39:55.104Z,100506.44
2022-07-29T20:42:02.076Z,100503.77
2022-07-29T20:44:09.425Z,100497.83
2022-07-29T20:46:20.871Z,100488.88
2022-07-29T20:48:27.848Z,100484.29
2022-07-29T20:50:34.833Z,100484.11
2022-07-29T20:52:41.518Z,100486.95
2022-07-29T20:54:48.281Z,100488.59
2022-07-29T20:56:55.825Z,100485.31
2022-07-29T20:59:03.424Z,100486.95
2022-07-29T21:01:10.652Z,100484.34
2022-07-29T21:03:19.462Z,100481.22
2022-07-29T21:05:26.336Z,100472.52
2022-07-29T21:07:33.585Z,100471.35
2022-07-29T21:09:40.482Z,100471.7
2022-07-29T21:11:47.123Z,100470.27
2022-07-29T21:13:55.228Z,100474.45
2022-07-29T21:16:09.503Z,100475.77
2022-07-29T21:18:20.340Z,100476.9
2022-07-29T21:20:28.459Z,100476.05
2022-07-29T21:22:35.393Z,100472.69
2022-07-29T21:24:43.246Z,100474.51
2022-07-29T21:27:20.546Z,100482.91
2022-07-29T21:29:29.484Z,100476.19
2022-07-29T21:31:36.645Z,100474.88
2022-07-29T21:33:43.129Z,100477.09
2022-07-29T21:39:00.538Z,100469.06
2022-07-29T21:41:08.363Z,100460.72
2022-07-29T21:43:15.271Z,100461.56
2022-07-29T21:45:22.712Z,100465.27
2022-07-29T21:47:29.697Z,100458.04
2022-07-29T21:49:38.985Z,100457.27
2022-07-29T21:51:46.031Z,100461.19
2022-07-29T21:53:54.456Z,100461.8
2022-07-29T21:56:01.580Z,100456.91
2022-07-29T21:58:15.582Z,100461.17
2022-07-29T22:00:23.486Z,100459.4
2022-07-29T22:02:30.551Z,100458.84
2022-07-29T22:04:37.584Z,100463.78
2022-07-29T22:06:44.737Z,100464.14
2022-07-29T22:08:51.664Z,100459.92
2022-07-29T22:10:57.945Z,100464.33
2022-07-29T22:13:04.042Z,100459.51
2022-07-29T22:15:12.227Z,100461.78
2022-07-29T22:17:20.738Z,100456.33
2022-07-29T22:19:29.953Z,100455.75
2022-07-29T22:21:37.135Z,100465.09
2022-07-29T22:23:43.356Z,100460.69
2022-07-29T22:25:49.016Z,100460.02
2022-07-29T22:27:55.521Z,100459.55
2022-07-29T22:30:01.550Z,100458.5
2022-07-29T22:32:07.407Z,100454.68
2022-07-29T22:34:13.465Z,100450.16
2022-07-29T22:36:19.006Z,100453.37
2022-07-29T22:38:24.945Z,100454.78
2022-07-29T22:40:34.325Z,100452.65
2022-07-29T22:42:42.248Z,100453.19
2022-07-29T22:44:47.950Z,100445.09
2022-07-29T22:46:53.903Z,100446.45
2022-07-29T22:49:00.516Z,100446.51
2022-07-29T22:51:06.347Z,100446.13
2022-07-29T22:53:13.871Z,100446.47
2022-07-29T22:55:19.234Z,100448.61
2022-07-29T22:57:24.548Z,100452.7
2022-07-29T22:59:30.157Z,100449.13
2022-07-29T23:01:39.529Z,100447.16
2022-07-29T23:03:52.589Z,100445.37
2022-07-29T23:05:58.371Z,100446.28
2022-07-29T23:08:04.136Z,100448.9
2022-07-29T23:10:09.627Z,100448.66
2022-07-29T23:12:15.228Z,100447.5
2022-07-29T23:14:21.046Z,100448.77
2022-07-29T23:16:28.407Z,100444.03
2022-07-29T23:18:35.270Z,100444.08
2022-07-29T23:20:41.026Z,100447.63
2022-07-29T23:22:46.611Z,100445.66
2022-07-29T23:24:52.173Z,100444.73
2022-07-29T23:26:58.077Z,100438.92
2022-07-29T23:29:04.999Z,100440.14
2022-07-29T23:31:10.873Z,100438.86
2022-07-29T23:33:17.120Z,100430.5
2022-07-29T23:35:22.960Z,100428.48
2022-07-29T23:37:28.592Z,100426.05
2022-07-29T23:39:34.076Z,100424.75
2022-07-29T23:41:39.892Z,100421.86
2022-07-29T23:43:45.567Z,100425.03
2022-07-29T23:45:54.978Z,100425.23
2022-07-29T23:48:06.830Z,100424.22
2022-07-29T23:50:12.317Z,100422.13
2022-07-29T23:52:18.262Z,100423.98
2022-07-29T23:54:24.240Z,100422.71
2022-07-29T23:56:29.769Z,100421.45
2022-07-29T23:58:35.531Z,100421.58
